Time;durP1;ratioP1;P1;durP2;ratioP2;P2;SDS_P1;SDS_P2;PMS_P1;PMS_P2;Temp;Humidity;BMP_temperature;BMP_pressure;BME280_temperature;BME280_humidity;BME280_pressure;Samples;Min_cycle;Max_cycle;Signal;HPM_P1;HPM_P2
2023/09/30 00:01:58;;;;;;;18.52;7.07;;;;;;;15.99;100.00;97892.34;5142351;27;20107;-75
2023/09/30 00:04:24;;;;;;;19.95;6.93;;;;;;;15.92;100.00;97891.94;5152229;27;20509;-75
2023/09/30 00:06:49;;;;;;;13.27;7.10;;;;;;;15.95;100.00;97888.16;5153121;27;20018;-73
2023/09/30 00:09:15;;;;;;;13.90;6.63;;;;;;;15.95;100.00;97885.44;5139844;27;20072;-73
2023/09/30 00:11:40;;;;;;;16.50;6.82;;;;;;;15.88;100.00;97890.47;5148916;27;20026;-74
2023/09/30 00:14:06;;;;;;;10.80;7.20;;;;;;;15.77;100.00;97898.53;5152569;27;20458;-74
2023/09/30 00:16:31;;;;;;;11.80;6.88;;;;;;;15.83;100.00;97894.50;5133210;27;20396;-74
2023/09/30 00:18:58;;;;;;;13.38;6.85;;;;;;;15.87;100.00;97898.69;5133196;27;20150;-75
2023/09/30 00:21:24;;;;;;;12.23;6.07;;;;;;;15.88;100.00;97895.84;5152467;27;20018;-75
2023/09/30 00:23:49;;;;;;;11.52;6.47;;;;;;;15.84;100.00;97898.94;5152747;27;20057;-73
2023/09/30 00:26:15;;;;;;;18.00;7.07;;;;;;;15.86;100.00;97897.81;5154161;27;20032;-73
2023/09/30 00:28:41;;;;;;;13.10;6.38;;;;;;;15.88;100.00;97895.00;5153627;27;20111;-73
2023/09/30 00:31:09;;;;;;;16.48;6.25;;;;;;;15.84;100.00;97896.22;5152550;27;20022;-73
2023/09/30 00:33:35;;;;;;;17.58;7.22;;;;;;;15.78;100.00;97885.91;5153773;27;20458;-74
2023/09/30 00:36:08;;;;;;;11.40;6.28;;;;;;;15.63;100.00;97886.09;5152352;27;20098;-74
2023/09/30 00:38:34;;;;;;;14.82;6.65;;;;;;;15.57;100.00;97881.19;5134490;27;20042;-74
2023/09/30 00:41:00;;;;;;;20.20;6.82;;;;;;;15.46;100.00;97891.91;5151788;27;20030;-74
2023/09/30 00:43:26;;;;;;;16.42;6.45;;;;;;;15.44;100.00;97888.44;5141843;27;20033;-74
2023/09/30 00:46:21;;;;;;;10.98;6.82;;;;;;;15.36;100.00;97876.53;5153389;27;20425;-74
2023/09/30 00:48:46;;;;;;;15.25;6.68;;;;;;;15.20;100.00;97876.81;5152081;27;20053;-73
2023/09/30 00:51:12;;;;;;;11.43;7.22;;;;;;;15.13;100.00;97872.88;5152149;27;20023;-74
2023/09/30 00:53:38;;;;;;;11.43;6.85;;;;;;;15.11;100.00;97885.59;5152043;27;20034;-74
2023/09/30 00:56:04;;;;;;;11.05;6.60;;;;;;;15.08;100.00;97877.75;5134627;27;20401;-73
2023/09/30 00:58:30;;;;;;;14.35;6.82;;;;;;;15.16;100.00;97886.97;5151620;27;20091;-73
2023/09/30 01:00:56;;;;;;;11.75;6.72;;;;;;;15.20;100.00;97890.28;5151748;27;20026;-73
2023/09/30 01:03:23;;;;;;;13.07;6.68;;;;;;;15.26;100.00;97880.91;5147907;27;20109;-73
2023/09/30 01:05:49;;;;;;;12.00;6.80;;;;;;;15.24;100.00;97886.41;5151605;27;20030;-73
2023/09/30 01:08:16;;;;;;;10.20;6.72;;;;;;;15.22;100.00;97879.41;5144740;27;20045;-73
2023/09/30 01:10:42;;;;;;;13.07;6.93;;;;;;;15.18;100.00;97884.19;5150060;27;20222;-74
2023/09/30 01:13:07;;;;;;;11.45;6.82;;;;;;;15.18;100.00;97886.88;5151516;27;20105;-74
2023/09/30 01:15:33;;;;;;;14.65;7.50;;;;;;;15.12;100.00;97887.31;5151515;27;20088;-74
2023/09/30 01:17:58;;;;;;;13.05;6.72;;;;;;;15.11;100.00;97878.38;5152914;27;20050;-74
2023/09/30 01:20:24;;;;;;;13.20;6.78;;;;;;;15.21;100.00;97878.56;5151423;27;20194;-73
2023/09/30 01:22:49;;;;;;;18.15;7.38;;;;;;;15.15;100.00;97876.31;5133979;27;20035;-74
2023/09/30 01:25:15;;;;;;;13.07;6.63;;;;;;;15.18;100.00;97874.25;5152725;27;20071;-74
2023/09/30 01:27:40;;;;;;;14.13;7.13;;;;;;;15.25;100.00;97879.19;5151224;27;20023;-74
2023/09/30 01:30:10;;;;;;;14.93;7.25;;;;;;;15.24;100.00;97878.31;5152637;27;20026;-74
2023/09/30 01:32:37;;;;;;;15.98;7.38;;;;;;;15.11;100.00;97885.59;5151049;27;20027;-74
2023/09/30 01:35:02;;;;;;;11.52;6.82;;;;;;;15.11;100.00;97888.28;5151392;27;20106;-74
2023/09/30 01:37:28;;;;;;;20.38;6.28;;;;;;;14.97;100.00;97875.88;5151244;27;20482;-74
2023/09/30 01:39:54;;;;;;;14.60;6.95;;;;;;;14.88;100.00;97878.38;5152415;27;20065;-74
2023/09/30 01:42:20;;;;;;;9.02;6.43;;;;;;;14.68;100.00;97878.97;5133860;27;20066;-74
2023/09/30 01:44:46;;;;;;;17.13;6.40;;;;;;;14.58;100.00;97885.03;5151011;27;20034;-74
2023/09/30 01:47:12;;;;;;;10.20;6.72;;;;;;;14.47;100.00;97892.16;5151166;27;20015;-74
2023/09/30 01:49:38;;;;;;;12.85;7.20;;;;;;;14.42;100.00;97872.81;5151017;27;20030;-74
2023/09/30 01:52:03;;;;;;;13.38;7.25;;;;;;;14.46;100.00;97879.66;5133551;27;20102;-73
2023/09/30 01:54:29;;;;;;;16.88;7.00;;;;;;;14.47;100.00;97876.88;5147694;27;20043;-74
2023/09/30 01:56:55;;;;;;;15.73;6.75;;;;;;;14.48;100.00;97877.75;5132325;27;20561;-73
2023/09/30 01:59:21;;;;;;;11.30;6.15;;;;;;;14.47;100.00;97884.09;5151101;27;20034;-73
2023/09/30 02:01:47;;;;;;;11.80;6.97;;;;;;;14.42;100.00;97881.75;5152029;27;20027;-73
2023/09/30 02:04:15;;;;;;;12.52;6.90;;;;;;;14.37;100.00;97878.50;5151042;27;20030;-74
2023/09/30 02:06:41;;;;;;;15.35;7.05;;;;;;;14.19;100.00;97876.22;5152038;27;20497;-74
2023/09/30 02:09:08;;;;;;;26.70;8.02;;;;;;;14.14;100.00;97876.56;5150844;27;20805;-74
2023/09/30 02:11:35;;;;;;;13.75;7.50;;;;;;;14.05;100.00;97877.22;5152037;27;20087;-74
2023/09/30 02:14:02;;;;;;;17.45;7.05;;;;;;;14.06;100.00;97882.47;5152083;27;20049;-75
2023/09/30 02:16:27;;;;;;;14.05;7.85;;;;;;;13.88;100.00;97880.22;5151933;27;20026;-74
2023/09/30 02:18:53;;;;;;;13.77;7.90;;;;;;;13.87;100.00;97882.03;5150495;27;20129;-74
2023/09/30 02:21:19;;;;;;;19.90;7.00;;;;;;;13.86;100.00;97885.72;5151926;27;20026;-74
2023/09/30 02:23:47;;;;;;;12.25;6.82;;;;;;;13.81;100.00;97887.00;5133253;27;20026;-74
2023/09/30 02:26:14;;;;;;;11.10;6.90;;;;;;;13.81;100.00;97885.16;5150864;27;20026;-75
2023/09/30 02:28:40;;;;;;;14.98;7.38;;;;;;;13.75;100.00;97887.44;5150778;27;20028;-73
2023/09/30 02:31:07;;;;;;;13.75;6.95;;;;;;;13.64;100.00;97884.63;5147665;27;20030;-74
2023/09/30 02:33:35;;;;;;;14.15;6.88;;;;;;;13.49;100.00;97886.53;5151811;27;20026;-74
2023/09/30 02:36:01;;;;;;;11.50;6.82;;;;;;;13.39;100.00;97886.28;5150503;27;20050;-74
2023/09/30 02:38:27;;;;;;;11.70;7.13;;;;;;;13.33;100.00;97883.16;5150353;27;20022;-74
2023/09/30 02:40:54;;;;;;;11.15;6.80;;;;;;;13.24;100.00;97884.63;5150457;27;20023;-74
2023/09/30 02:43:20;;;;;;;16.75;6.78;;;;;;;13.17;100.00;97874.41;5137442;27;20019;-74
2023/09/30 02:45:46;;;;;;;12.13;7.22;;;;;;;13.10;100.00;97884.72;5146891;27;20027;-74
2023/09/30 02:48:12;;;;;;;13.75;6.75;;;;;;;13.24;100.00;97886.47;5150378;27;20411;-74
2023/09/30 02:50:39;;;;;;;14.27;7.65;;;;;;;13.21;100.00;97882.16;5139195;27;20027;-73
2023/09/30 02:53:05;;;;;;;16.17;6.75;;;;;;;13.22;100.00;97885.72;5129595;27;20160;-74
2023/09/30 02:55:30;;;;;;;20.50;6.78;;;;;;;13.16;100.00;97887.00;5148293;27;20067;-74
2023/09/30 02:57:57;;;;;;;11.60;7.15;;;;;;;13.03;100.00;97888.72;5150222;27;20149;-73
2023/09/30 03:00:23;;;;;;;12.50;7.20;;;;;;;12.95;100.00;97888.38;5151564;27;20060;-75
2023/09/30 03:03:00;;;;;;;15.18;6.85;;;;;;;12.96;100.00;97882.03;5151610;27;20058;-74
2023/09/30 03:05:27;;;;;;;13.25;7.10;;;;;;;12.93;100.00;97892.97;5154122;27;20034;-74
2023/09/30 03:07:54;;;;;;;14.75;6.97;;;;;;;12.93;100.00;97892.97;5155321;27;20492;-74
2023/09/30 03:10:20;;;;;;;11.98;7.00;;;;;;;12.79;100.00;97890.34;5155365;27;20451;-74
2023/09/30 03:12:47;;;;;;;20.77;7.13;;;;;;;12.79;100.00;97887.66;5154084;27;20038;-72
2023/09/30 03:15:14;;;;;;;11.98;7.28;;;;;;;12.70;100.00;97877.53;5153876;27;20030;-73
2023/09/30 03:17:41;;;;;;;14.65;6.90;;;;;;;12.76;100.00;97880.69;5153963;27;20402;-73
2023/09/30 03:20:11;;;;;;;10.20;6.80;;;;;;;12.82;100.00;97879.41;5153489;27;20035;-74
2023/09/30 03:22:40;;;;;;;17.02;7.43;;;;;;;12.80;100.00;97875.94;5154048;27;20480;-75
2023/09/30 03:25:07;;;;;;;12.95;7.07;;;;;;;12.81;100.00;97880.34;5153696;27;20466;-75
2023/09/30 03:27:33;;;;;;;14.45;7.60;;;;;;;12.76;100.00;97879.81;5136432;27;20107;-75
2023/09/30 03:30:01;;;;;;;23.00;7.75;;;;;;;12.81;100.00;97888.41;5153499;27;20033;-75
2023/09/30 03:32:26;;;;;;;14.65;7.07;;;;;;;12.74;100.00;97881.72;5153666;27;20029;-75
2023/09/30 03:34:52;;;;;;;13.80;7.63;;;;;;;12.82;100.00;97879.41;5153546;27;20109;-75
2023/09/30 03:37:18;;;;;;;16.33;7.45;;;;;;;12.77;100.00;97877.00;5153544;27;20557;-74
2023/09/30 03:39:43;;;;;;;11.90;7.30;;;;;;;12.76;100.00;97880.69;5154826;27;20105;-75
2023/09/30 03:42:11;;;;;;;11.00;7.13;;;;;;;12.74;100.00;97877.22;5153269;27;20030;-75
2023/09/30 03:44:38;;;;;;;25.02;8.38;;;;;;;12.80;100.00;97882.19;5154733;27;20027;-74
2023/09/30 03:47:04;;;;;;;16.85;9.10;;;;;;;12.73;100.00;97886.25;5154467;27;20011;-75
2023/09/30 03:49:30;;;;;;;20.27;8.75;;;;;;;12.72;100.00;97889.88;5153169;27;20027;-74
2023/09/30 03:51:55;;;;;;;13.32;8.60;;;;;;;12.67;100.00;97894.69;5154605;27;20023;-74
2023/09/30 03:54:21;;;;;;;16.13;9.13;;;;;;;12.61;100.00;97900.47;5153054;27;20101;-74
2023/09/30 03:56:47;;;;;;;18.65;8.68;;;;;;;12.61;100.00;97899.59;5133799;27;20080;-75
2023/09/30 03:59:13;;;;;;;19.30;9.63;;;;;;;12.40;100.00;97907.19;5150855;27;20355;-74
2023/09/30 04:01:40;;;;;;;16.42;8.05;;;;;;;12.30;100.00;97909.59;5153055;27;20014;-74
2023/09/30 04:04:07;;;;;;;18.70;7.93;;;;;;;12.27;100.00;97907.13;5154041;27;20019;-74
2023/09/30 04:06:33;;;;;;;23.50;8.40;;;;;;;12.32;100.00;97909.50;5135625;27;20023;-74
2023/09/30 04:08:59;;;;;;;19.85;8.40;;;;;;;12.32;100.00;97902.31;5133202;27;20023;-77
2023/09/30 04:11:25;;;;;;;17.50;8.63;;;;;;;12.21;100.00;97904.78;5135708;27;20468;-75
2023/09/30 04:13:50;;;;;;;16.95;7.85;;;;;;;12.04;100.00;97896.94;5131676;27;20022;-74
2023/09/30 04:16:18;;;;;;;14.73;7.65;;;;;;;11.98;100.00;97910.72;5134151;27;20015;-75
2023/09/30 04:18:44;;;;;;;16.27;7.28;;;;;;;11.97;100.00;97905.47;5131874;27;20043;-74
2023/09/30 04:21:09;;;;;;;15.38;8.02;;;;;;;11.98;100.00;97902.69;5131934;27;20087;-74
2023/09/30 04:23:36;;;;;;;17.27;7.47;;;;;;;11.99;100.00;97909.78;5151516;27;20015;-79
2023/09/30 04:26:03;;;;;;;14.00;7.38;;;;;;;12.07;100.00;97918.22;5135476;27;20530;-75
2023/09/30 04:28:29;;;;;;;15.90;7.57;;;;;;;12.08;100.00;97919.06;5149885;27;20458;-75
2023/09/30 04:30:54;;;;;;;14.43;7.63;;;;;;;12.02;100.00;97909.59;5133235;27;20051;-74
2023/09/30 04:33:20;;;;;;;15.25;7.10;;;;;;;11.98;100.00;97917.91;5132721;27;20452;-75
2023/09/30 04:35:46;;;;;;;17.77;7.90;;;;;;;11.96;100.00;97918.03;5152116;27;20392;-75
2023/09/30 04:38:13;;;;;;;14.45;7.28;;;;;;;11.95;100.00;97913.59;5152288;27;20015;-75
2023/09/30 04:40:39;;;;;;;17.05;8.25;;;;;;;11.97;100.00;97916.22;5152268;27;20019;-75
2023/09/30 04:43:05;;;;;;;21.40;8.05;;;;;;;11.99;100.00;97915.16;5129173;27;20026;-74
2023/09/30 04:45:31;;;;;;;19.63;7.20;;;;;;;12.00;100.00;97911.50;5131272;27;20027;-75
2023/09/30 04:47:56;;;;;;;19.38;7.25;;;;;;;12.07;100.00;97918.22;5146074;27;20103;-74
2023/09/30 04:50:22;;;;;;;20.38;8.43;;;;;;;12.18;100.00;97917.56;5153104;27;20033;-73
2023/09/30 04:52:48;;;;;;;16.85;8.45;;;;;;;12.36;100.00;97925.31;5153045;27;20034;-75
2023/09/30 04:55:18;;;;;;;17.38;8.32;;;;;;;12.31;100.00;97921.16;5152024;27;20526;-73
2023/09/30 04:57:46;;;;;;;18.90;8.95;;;;;;;12.44;100.00;97923.00;5144833;27;20018;-75
2023/09/30 05:00:17;;;;;;;16.75;7.70;;;;;;;12.47;100.00;97928.16;5151821;27;20019;-75
2023/09/30 05:02:44;;;;;;;16.17;8.15;;;;;;;12.60;100.00;97932.75;5134476;27;20027;-75
2023/09/30 05:05:10;;;;;;;16.38;7.90;;;;;;;12.87;100.00;97922.91;5151901;27;20050;-75
2023/09/30 05:07:36;;;;;;;17.17;7.85;;;;;;;13.67;100.00;97920.22;5151553;27;20418;-74
2023/09/30 05:10:05;;;;;;;14.85;8.27;;;;;;;14.36;100.00;97922.56;5151653;27;20031;-75
2023/09/30 05:12:33;;;;;;;20.33;8.45;;;;;;;15.25;100.00;97912.41;5151252;27;20037;-74
2023/09/30 05:14:59;;;;;;;22.00;8.75;;;;;;;15.86;100.00;97913.16;5134398;27;20038;-74
2023/09/30 05:17:25;;;;;;;16.15;7.70;;;;;;;16.30;100.00;97901.56;5134016;27;20343;-74
2023/09/30 05:19:50;;;;;;;17.02;8.00;;;;;;;16.94;100.00;97906.25;5152537;27;20047;-76
2023/09/30 05:22:18;;;;;;;15.00;7.50;;;;;;;17.32;100.00;97906.63;5152761;27;20082;-75
2023/09/30 05:24:44;;;;;;;24.75;7.70;;;;;;;17.65;100.00;97894.00;5152467;27;20054;-75
2023/09/30 05:27:10;;;;;;;20.23;7.18;;;;;;;18.35;100.00;97899.59;5133590;27;20083;-76
2023/09/30 05:29:35;;;;;;;16.00;7.07;;;;;;;18.99;100.00;97893.88;5133572;27;20076;-75
2023/09/30 05:32:01;;;;;;;20.30;7.78;;;;;;;19.48;100.00;97892.00;5151441;27;20034;-75
2023/09/30 05:34:27;;;;;;;22.73;10.27;;;;;;;19.65;100.00;97895.88;5152580;27;20110;-75
2023/09/30 05:36:53;;;;;;;21.38;8.02;;;;;;;20.29;100.00;97898.84;5147023;27;20065;-75
2023/09/30 05:39:19;;;;;;;24.38;9.68;;;;;;;20.68;100.00;97898.69;5146849;27;20065;-75
2023/09/30 05:41:46;;;;;;;25.90;8.63;;;;;;;21.04;100.00;97908.72;5145084;27;20124;-75
2023/09/30 05:44:14;;;;;;;18.75;7.88;;;;;;;21.77;99.22;97899.50;5152433;27;20015;-75
2023/09/30 05:46:40;;;;;;;25.23;7.70;;;;;;;21.71;96.77;97889.25;5131846;27;20035;-74
2023/09/30 05:49:11;;;;;;;23.83;9.98;;;;;;;21.71;96.44;97897.41;5145573;27;20397;-75
2023/09/30 05:51:36;;;;;;;26.73;9.43;;;;;;;22.34;93.73;97903.56;5152414;27;20037;-75
2023/09/30 05:54:02;;;;;;;23.63;10.35;;;;;;;22.66;90.36;97898.38;5151064;27;20443;-75
2023/09/30 05:56:27;;;;;;;15.68;8.85;;;;;;;22.11;92.50;97908.72;5150656;27;20022;-74
2023/09/30 05:58:53;;;;;;;18.55;8.60;;;;;;;22.64;91.70;97911.28;5151895;27;20051;-75
2023/09/30 06:01:19;;;;;;;19.23;9.65;;;;;;;23.21;86.36;97897.94;5150664;27;20465;-75
2023/09/30 06:03:46;;;;;;;33.92;18.45;;;;;;;23.47;84.10;97898.72;5150526;27;20035;-75
2023/09/30 06:06:13;;;;;;;16.67;8.52;;;;;;;23.68;81.40;97895.53;5137703;27;20038;-75
2023/09/30 06:08:39;;;;;;;20.13;10.82;;;;;;;24.00;76.83;97895.56;5131390;27;20091;-75
2023/09/30 06:11:05;;;;;;;40.75;16.08;;;;;;;24.28;75.55;97893.38;5112606;27;20479;-75
2023/09/30 06:13:32;;;;;;;26.25;10.82;;;;;;;24.57;71.90;97899.16;5131389;27;20066;-76
2023/09/30 06:15:58;;;;;;;27.20;9.95;;;;;;;24.69;71.25;97896.91;5149260;27;20046;-76
2023/09/30 06:18:24;;;;;;;17.33;6.60;;;;;;;24.97;68.14;97886.41;5150379;27;20047;-76
2023/09/30 06:20:50;;;;;;;35.63;16.33;;;;;;;25.65;63.93;97879.25;5151925;27;20026;-74
2023/09/30 06:23:16;;;;;;;14.50;9.88;;;;;;;25.65;62.60;97884.75;5133507;27;20501;-76
2023/09/30 06:25:42;;;;;;;31.45;11.13;;;;;;;25.63;63.17;97885.94;5133327;27;20026;-77
2023/09/30 06:28:08;;;;;;;22.33;10.20;;;;;;;26.02;60.11;97891.31;5150880;27;20021;-76
2023/09/30 06:30:34;;;;;;;22.95;11.10;;;;;;;26.32;59.67;97891.28;5150853;27;20015;-75
2023/09/30 06:33:01;;;;;;;31.33;11.93;;;;;;;26.95;56.90;97889.13;5150610;27;20042;-75
2023/09/30 06:35:27;;;;;;;15.23;8.95;;;;;;;26.88;55.91;97892.63;5150568;27;20108;-76
2023/09/30 06:37:53;;;;;;;18.42;10.10;;;;;;;26.98;55.11;97889.56;5134482;27;20015;-76
2023/09/30 06:40:19;;;;;;;14.35;9.57;;;;;;;27.44;52.85;97890.22;5154536;27;20034;-75
2023/09/30 06:42:52;;;;;;;19.15;8.35;;;;;;;27.83;52.03;97881.59;5155828;27;20109;-75
2023/09/30 06:45:21;;;;;;;14.30;8.45;;;;;;;27.78;50.81;97864.84;5142669;27;20034;-74
2023/09/30 06:47:47;;;;;;;19.35;7.15;;;;;;;28.16;50.35;97884.69;5137989;27;20019;-75
2023/09/30 06:50:16;;;;;;;17.40;7.60;;;;;;;28.57;49.54;97876.59;5134154;27;20031;-75
2023/09/30 06:52:45;;;;;;;16.05;7.57;;;;;;;29.24;47.44;97880.47;5136869;27;20045;-75
2023/09/30 06:55:13;;;;;;;13.65;6.50;;;;;;;29.02;46.11;97871.41;5137066;27;20058;-75
2023/09/30 06:57:40;;;;;;;15.13;7.10;;;;;;;28.30;47.59;97873.59;5155907;27;20079;-75
2023/09/30 07:00:11;;;;;;;12.02;7.22;;;;;;;28.45;48.54;97890.06;5154028;27;20122;-74
2023/09/30 07:02:38;;;;;;;17.85;6.70;;;;;;;28.72;47.86;97888.38;5137032;27;20382;-75
2023/09/30 07:05:11;;;;;;;21.92;6.57;;;;;;;29.26;46.60;97886.63;5137270;27;20029;-75
2023/09/30 07:07:36;;;;;;;15.52;6.97;;;;;;;29.35;45.88;97888.16;5155080;27;20398;-75
2023/09/30 07:10:04;;;;;;;15.90;5.80;;;;;;;29.35;45.56;97882.63;5154275;27;20023;-75
2023/09/30 07:12:31;;;;;;;14.52;6.70;;;;;;;29.92;43.92;97889.66;5153820;27;20080;-75
2023/09/30 07:14:57;;;;;;;14.30;6.88;;;;;;;30.30;42.98;97888.03;5155414;27;20077;-74
2023/09/30 07:17:23;;;;;;;13.13;6.22;;;;;;;29.65;43.91;97885.09;5153775;27;20023;-74
2023/09/30 07:19:48;;;;;;;13.85;6.03;;;;;;;29.50;44.90;97891.63;5153628;27;20167;-74
2023/09/30 07:22:14;;;;;;;12.82;6.22;;;;;;;29.89;43.97;97887.34;5155235;27;20057;-74
2023/09/30 07:24:40;;;;;;;15.85;6.32;;;;;;;30.20;42.64;97882.09;5153445;27;20027;-74
2023/09/30 07:27:06;;;;;;;10.30;6.20;;;;;;;30.36;42.27;97881.69;5142851;27;20094;-74
2023/09/30 07:29:33;;;;;;;13.73;6.55;;;;;;;31.08;41.09;97880.81;5132893;27;20027;-75
2023/09/30 07:31:58;;;;;;;12.90;6.25;;;;;;;30.87;41.28;97883.78;5134418;27;20027;-75
2023/09/30 07:34:24;;;;;;;10.85;6.00;;;;;;;30.66;41.12;97887.66;5150745;27;20026;-75
2023/09/30 07:36:49;;;;;;;13.30;7.07;;;;;;;31.19;41.25;97882.94;5153156;27;20230;-75
2023/09/30 07:39:15;;;;;;;12.32;6.85;;;;;;;31.12;40.97;97882.09;5153480;27;20030;-75
2023/09/30 07:41:40;;;;;;;12.48;6.90;;;;;;;31.62;39.62;97883.22;5153433;27;20031;-75
2023/09/30 07:44:08;;;;;;;12.68;6.65;;;;;;;31.46;39.86;97873.47;5155062;27;20022;-75
2023/09/30 07:46:34;;;;;;;9.90;6.07;;;;;;;32.01;38.61;97876.59;5153447;27;20517;-75
2023/09/30 07:49:00;;;;;;;15.02;9.32;;;;;;;32.18;38.19;97878.66;5152854;27;20023;-74
2023/09/30 07:51:26;;;;;;;11.77;7.25;;;;;;;31.78;38.57;97879.94;5154731;27;20019;-74
2023/09/30 07:53:52;;;;;;;17.20;6.03;;;;;;;32.09;38.11;97876.38;5154262;27;20052;-75
2023/09/30 07:56:17;;;;;;;16.48;5.95;;;;;;;32.35;37.45;97876.19;5154724;27;20044;-74
2023/09/30 07:58:43;;;;;;;12.73;6.22;;;;;;;32.34;36.82;97882.78;5154490;27;20030;-76
2023/09/30 08:01:08;;;;;;;12.20;5.60;;;;;;;32.37;37.12;97879.56;5154282;27;20389;-74
2023/09/30 08:03:34;;;;;;;14.18;6.00;;;;;;;33.17;36.25;97869.50;5153287;27;20033;-75
2023/09/30 08:06:00;;;;;;;8.75;5.57;;;;;;;33.17;36.48;97873.13;5153858;27;20031;-74
2023/09/30 08:08:26;;;;;;;11.73;5.45;;;;;;;33.22;35.83;97876.06;5154209;27;20390;-74
2023/09/30 08:10:55;;;;;;;9.68;5.80;;;;;;;33.13;35.68;97869.13;5135268;27;20117;-73
2023/09/30 08:13:22;;;;;;;14.50;6.25;;;;;;;33.12;35.79;97867.44;5146947;27;20027;-74
2023/09/30 08:15:50;;;;;;;9.02;5.47;;;;;;;33.35;35.70;97866.72;5132063;27;20030;-75
2023/09/30 08:18:15;;;;;;;13.95;5.53;;;;;;;34.20;34.35;97870.34;5128270;27;20497;-75
2023/09/30 08:20:41;;;;;;;19.98;5.63;;;;;;;34.74;33.71;97864.56;5152652;27;20050;-74
2023/09/30 08:23:06;;;;;;;13.32;6.57;;;;;;;35.33;32.27;97852.34;5152656;27;20030;-74
2023/09/30 08:25:32;;;;;;;10.05;5.25;;;;;;;35.44;31.61;97856.16;5152752;27;20486;-73
2023/09/30 08:27:57;;;;;;;12.77;5.03;;;;;;;34.40;32.40;97850.56;5152419;27;20481;-74
2023/09/30 08:30:23;;;;;;;14.48;6.00;;;;;;;34.38;32.66;97856.38;5152762;27;20079;-75
2023/09/30 08:32:48;;;;;;;14.25;5.20;;;;;;;34.60;32.34;97857.53;5135005;27;20030;-75
2023/09/30 08:35:15;;;;;;;12.40;5.32;;;;;;;35.17;31.02;97846.66;5152318;27;20056;-78
2023/09/30 08:37:41;;;;;;;26.95;7.53;;;;;;;35.44;30.85;97839.47;5152652;27;20031;-74
2023/09/30 08:40:09;;;;;;;9.20;5.93;;;;;;;35.63;30.48;97841.03;5152202;27;20079;-74
2023/09/30 08:42:35;;;;;;;12.25;4.40;;;;;;;35.64;29.44;97836.31;5152469;27;20027;-75
2023/09/30 08:45:02;;;;;;;15.70;6.30;;;;;;;35.99;29.30;97834.25;5152378;27;20131;-74
2023/09/30 08:47:28;;;;;;;12.20;4.72;;;;;;;36.17;29.51;97825.69;5151852;27;20014;-74
2023/09/30 08:49:57;;;;;;;13.93;4.88;;;;;;;35.88;29.55;97830.41;5153652;27;20031;-74
2023/09/30 08:52:23;;;;;;;16.55;5.72;;;;;;;36.11;29.42;97829.47;5134881;27;20494;-74
2023/09/30 08:54:49;;;;;;;13.50;6.10;;;;;;;36.19;29.65;97828.22;5151820;27;20030;-75
2023/09/30 08:57:15;;;;;;;8.90;5.07;;;;;;;35.56;30.67;97833.91;5151839;27;20065;-74
2023/09/30 08:59:41;;;;;;;9.40;4.63;;;;;;;35.34;30.50;97825.34;5126696;27;20023;-75
2023/09/30 09:02:10;;;;;;;8.75;4.80;;;;;;;35.17;30.41;97819.69;5125990;27;20085;-75
2023/09/30 09:04:38;;;;;;;12.05;5.47;;;;;;;37.06;29.04;97814.63;5150487;27;20027;-74
2023/09/30 09:07:04;;;;;;;8.38;5.18;;;;;;;36.62;28.56;97822.00;5148968;27;20019;-75
2023/09/30 09:09:30;;;;;;;13.30;4.88;;;;;;;35.66;29.30;97812.69;5133047;27;20090;-75
2023/09/30 09:11:55;;;;;;;16.50;5.00;;;;;;;32.01;33.83;97821.25;5132402;27;20023;-74
2023/09/30 09:14:41;;;;;;;9.55;5.30;;;;;;;32.61;33.12;97826.13;5148254;27;20113;-75
2023/09/30 09:17:07;;;;;;;23.70;6.70;;;;;;;32.08;34.69;97827.63;5152689;27;20029;-75
2023/09/30 09:19:34;;;;;;;18.00;5.72;;;;;;;31.49;35.06;97823.25;5151093;27;20474;-73
2023/09/30 09:22:04;;;;;;;8.27;4.97;;;;;;;30.94;35.54;97830.25;5134091;27;20075;-74
2023/09/30 09:24:38;;;;;;;12.02;4.57;;;;;;;30.63;36.39;97830.06;5151843;27;20019;-74
2023/09/30 09:27:08;;;;;;;9.50;5.50;;;;;;;31.45;36.01;97816.44;5151194;27;20033;-74
2023/09/30 09:29:36;;;;;;;23.20;8.48;;;;;;;30.89;36.08;97827.25;5151495;27;20034;-74
2023/09/30 09:32:09;;;;;;;20.80;5.45;;;;;;;31.30;35.29;97818.63;5134103;27;20026;-74
2023/09/30 09:34:34;;;;;;;15.57;5.22;;;;;;;30.60;35.41;97814.78;5152770;27;20086;-74
2023/09/30 09:37:17;;;;;;;12.77;5.57;;;;;;;30.46;35.37;97817.75;5133644;27;20027;-74
2023/09/30 09:39:56;;;;;;;13.18;4.82;;;;;;;30.34;35.12;97800.94;5152294;27;20091;-75
2023/09/30 09:42:32;;;;;;;14.18;4.82;;;;;;;30.47;35.44;97806.50;5133903;27;20010;-74
2023/09/30 09:44:59;;;;;;;7.00;4.47;;;;;;;31.26;34.53;97792.47;5151050;27;20106;-75
2023/09/30 09:47:26;;;;;;;21.50;4.78;;;;;;;32.06;33.58;97793.75;5151179;27;20015;-75
2023/09/30 09:49:53;;;;;;;14.18;5.45;;;;;;;33.15;32.89;97799.56;5152151;27;20022;-76
2023/09/30 09:52:19;;;;;;;11.20;5.60;;;;;;;34.03;31.72;97786.81;5151070;27;20014;-76
2023/09/30 09:54:46;;;;;;;9.50;5.13;;;;;;;34.40;30.80;97784.72;5151119;27;20026;-76
2023/09/30 09:57:11;;;;;;;8.82;5.20;;;;;;;34.28;31.26;97789.44;5150964;27;20375;-76
2023/09/30 09:59:39;;;;;;;12.02;4.97;;;;;;;33.41;32.14;97785.34;5150961;27;20038;-76
2023/09/30 10:02:10;;;;;;;13.52;5.65;;;;;;;34.05;31.54;97778.25;5151171;27;20466;-76
2023/09/30 10:04:39;;;;;;;12.20;5.53;;;;;;;35.35;29.77;97766.66;5146175;27;20475;-76
2023/09/30 10:07:05;;;;;;;17.08;5.97;;;;;;;34.68;31.03;97775.69;5130433;27;20023;-76
2023/09/30 10:09:35;;;;;;;11.38;5.65;;;;;;;35.11;29.89;97764.19;5130482;27;20538;-76
2023/09/30 10:12:01;;;;;;;22.90;6.00;;;;;;;36.18;28.82;97760.47;5114494;27;20095;-76
2023/09/30 10:14:32;;;;;;;16.10;7.45;;;;;;;37.11;27.70;97758.88;5134523;27;20494;-76
2023/09/30 10:16:58;;;;;;;;;;;;;;;37.80;26.93;97754.44;5136378;27;20508;-74
2023/09/30 10:19:32;;;;;;;8.27;5.80;;;;;;;38.56;25.69;97755.16;5154889;27;19915;-76
2023/09/30 10:22:21;;;;;;;11.60;5.75;;;;;;;38.89;25.37;97741.72;5119060;27;20123;-77
2023/09/30 10:24:47;;;;;;;;;;;;;;;38.63;25.02;97741.81;5136328;27;20038;-76
2023/09/30 10:27:22;;;;;;;;;;;;;;;39.09;24.16;97735.38;5144691;27;19918;-76
2023/09/30 10:29:47;;;;;;;;;;;;;;;38.92;24.19;97729.13;5150313;27;19951;-75
2023/09/30 10:32:14;;;;;;;;;;;;;;;39.64;23.96;97731.97;5155153;27;19918;-75
2023/09/30 10:34:39;;;;;;;;;;;;;;;39.94;22.70;97717.19;5138108;27;19917;-75
2023/09/30 10:37:19;;;;;;;;;;;;;;;38.82;24.02;97715.94;5137570;27;19915;-74
2023/09/30 10:39:58;;;;;;;;;;;;;;;37.83;24.58;97718.44;5155252;27;19911;-75
2023/09/30 10:42:56;;;;;;;;;;;;;;;37.20;24.65;97704.28;5117152;27;20306;-75
2023/09/30 10:45:40;;;;;;;;;;;;;;;37.71;23.97;97703.78;5100956;27;20335;-75
2023/09/30 10:48:24;;;;;;;;;;;;;;;37.71;23.51;97692.63;5135871;27;19961;-76
2023/09/30 10:50:50;;;;;;;;;;;;;;;37.63;23.96;97695.88;5135483;27;19951;-75
2023/09/30 10:53:16;;;;;;;;;;;;;;;37.57;23.98;97684.91;5137133;27;19910;-75
2023/09/30 10:55:42;;;;;;;;;;;;;;;36.39;25.05;97683.63;5135225;27;19915;-74
2023/09/30 10:58:07;;;;;;;;;;;;;;;37.21;24.33;97687.28;5124525;27;19994;-74
2023/09/30 11:00:33;;;;;;;;;;;;;;;38.14;23.52;97690.78;5133228;27;19994;-74
2023/09/30 11:02:58;;;;;;;;;;;;;;;37.03;24.24;97679.25;5135002;27;20287;-74
2023/09/30 11:05:24;;;;;;;;;;;;;;;37.02;24.15;97682.31;5152540;27;20437;-74
2023/09/30 11:07:50;;;;;;;;;;;;;;;36.64;25.08;97675.63;5154738;27;19911;-74
2023/09/30 11:10:19;;;;;;;;;;;;;;;36.19;25.30;97680.50;5137535;27;20010;-74
2023/09/30 11:12:57;;;;;;;;;;;;;;;35.96;25.55;97678.72;5155620;27;20370;-75
2023/09/30 11:15:23;;;;;;;;;;;;;;;36.67;24.41;97666.75;5154542;27;19910;-75
2023/09/30 11:17:48;;;;;;;;;;;;;;;36.25;24.64;97665.56;5154205;27;20247;-74
2023/09/30 11:20:13;;;;;;;;;;;;;;;36.94;23.92;97664.91;5154351;27;19915;-75
2023/09/30 11:22:39;;;;;;;;;;;;;;;37.63;23.71;97661.50;5136898;27;19934;-74
2023/09/30 11:25:05;;;;;;;;;;;;;;;37.47;23.55;97652.97;5148116;27;19911;-75
2023/09/30 11:27:31;;;;;;;;;;;;;;;37.03;24.35;97661.66;5154274;27;19934;-75
2023/09/30 11:30:02;;;;;;;;;;;;;;;37.74;23.75;97654.94;5154073;27;19910;-75